createdAt,value
2019-02-04T00:02:19.166Z,99.90
2019-02-04T00:04:50.122Z,99.90
2019-02-04T00:07:21.385Z,99.90
2019-02-04T00:09:52.373Z,99.90
2019-02-04T00:12:23.334Z,99.90
2019-02-04T00:14:54.336Z,99.90
2019-02-04T00:17:26.312Z,99.90
2019-02-04T00:19:57.572Z,99.90
2019-02-04T00:22:28.522Z,99.90
2019-02-04T00:24:59.430Z,99.90
2019-02-04T00:27:30.387Z,99.90
2019-02-04T00:30:01.374Z,99.90
2019-02-04T00:32:32.595Z,99.90
2019-02-04T00:35:03.705Z,99.90
2019-02-04T00:37:34.730Z,99.90
2019-02-04T00:40:10.148Z,99.90
2019-02-04T00:42:41.101Z,99.90
2019-02-04T00:45:12.086Z,99.90
2019-02-04T00:47:43.176Z,99.90
2019-02-04T00:50:19.841Z,99.90
2019-02-04T00:52:50.816Z,99.90
2019-02-04T00:55:21.920Z,99.90
2019-02-04T00:57:52.842Z,99.90
2019-02-04T01:00:29.855Z,99.90
2019-02-04T01:03:01.143Z,99.90
2019-02-04T01:05:32.091Z,99.90
2019-02-04T01:08:03.557Z,99.90
2019-02-04T01:10:34.507Z,99.90
2019-02-04T01:13:05.521Z,99.90
2019-02-04T01:15:36.480Z,99.90
2019-02-04T01:18:07.460Z,99.90
2019-02-04T01:20:38.800Z,99.90
2019-02-04T01:23:09.785Z,99.90
2019-02-04T01:25:40.739Z,99.90
2019-02-04T01:28:11.746Z,99.90
2019-02-04T01:30:42.694Z,99.90
2019-02-04T01:33:13.968Z,99.90
2019-02-04T01:35:44.939Z,99.90
2019-02-04T01:38:15.947Z,99.90
2019-02-04T01:40:46.886Z,99.90
2019-02-04T01:43:17.900Z,99.90
2019-02-04T01:45:50.179Z,99.90
2019-02-04T01:48:21.257Z,99.90
2019-02-04T01:50:52.312Z,99.90
2019-02-04T01:53:23.263Z,99.90
2019-02-04T01:55:54.175Z,99.90
2019-02-04T01:58:26.521Z,99.90
2019-02-04T02:00:57.609Z,99.90
2019-02-04T02:03:28.567Z,99.90
2019-02-04T02:05:59.476Z,99.90
2019-02-04T02:08:30.433Z,99.90
2019-02-04T02:11:02.786Z,99.90
2019-02-04T02:13:33.782Z,99.90
2019-02-04T02:16:04.792Z,99.90
2019-02-04T02:18:35.748Z,99.90
2019-02-04T02:21:06.753Z,99.90
2019-02-04T02:23:37.694Z,99.90
2019-02-04T02:26:08.732Z,99.90
2019-02-04T02:28:39.686Z,99.90
2019-02-04T02:31:10.671Z,99.90
2019-02-04T02:33:41.649Z,99.90
2019-02-04T02:36:12.633Z,99.90
2019-02-04T02:38:43.586Z,99.90
2019-02-04T02:41:14.588Z,99.90
2019-02-04T02:43:45.536Z,99.90
2019-02-04T02:46:16.566Z,99.90
2019-02-04T02:48:47.723Z,99.90
2019-02-04T02:51:18.742Z,99.90
2019-02-04T02:53:49.709Z,99.90
2019-02-04T02:56:20.696Z,99.90
2019-02-04T02:58:51.653Z,99.90
2019-02-04T03:01:23.006Z,99.90
2019-02-04T03:03:54.022Z,99.90
2019-02-04T03:06:25.123Z,99.90
2019-02-04T03:08:56.374Z,99.90
2019-02-04T03:11:27.331Z,99.90
2019-02-04T03:13:58.481Z,99.90
2019-02-04T03:16:29.445Z,99.90
2019-02-04T03:19:00.498Z,99.90
2019-02-04T03:21:31.530Z,99.90
2019-02-04T03:24:02.442Z,99.90
2019-02-04T03:26:33.707Z,99.90
2019-02-04T03:29:04.929Z,99.90
2019-02-04T03:31:39.120Z,99.90
2019-02-04T03:34:09.553Z,99.90
2019-02-04T03:36:40.621Z,99.90
2019-02-04T03:39:11.970Z,99.90
2019-02-04T03:41:42.936Z,99.90
2019-02-04T03:44:13.921Z,99.90
2019-02-04T03:46:44.833Z,99.90
2019-02-04T03:49:15.813Z,99.90
2019-02-04T03:51:47.070Z,99.90
2019-02-04T03:54:18.022Z,99.90
2019-02-04T03:56:49.005Z,99.90
2019-02-04T03:59:19.887Z,99.90
2019-02-04T04:01:50.868Z,99.90
2019-02-04T04:04:22.225Z,99.90
2019-02-04T04:06:53.209Z,99.90
2019-02-04T04:09:24.181Z,99.90
2019-02-04T04:11:55.141Z,99.90
2019-02-04T04:14:26.026Z,99.90
2019-02-04T04:16:57.289Z,99.90
2019-02-04T04:19:28.238Z,99.90
2019-02-04T04:22:00.180Z,99.90
2019-02-04T04:24:31.058Z,99.90
2019-02-04T04:27:03.587Z,99.90
2019-02-04T04:29:34.875Z,99.90
2019-02-04T04:32:05.854Z,99.90
2019-02-04T04:34:36.791Z,99.90
2019-02-04T04:37:07.776Z,99.90
2019-02-04T04:39:38.761Z,99.90
2019-02-04T04:42:09.992Z,99.90
2019-02-04T04:44:40.973Z,99.90
2019-02-04T04:47:11.860Z,99.90
2019-02-04T04:49:42.840Z,99.90
2019-02-04T04:52:13.795Z,99.90
2019-02-04T04:54:44.949Z,99.90
2019-02-04T04:57:15.903Z,99.90
2019-02-04T04:59:46.821Z,99.90
2019-02-04T05:02:17.778Z,99.90
2019-02-04T05:04:48.773Z,99.90
2019-02-04T05:07:20.103Z,99.90
2019-02-04T05:09:51.090Z,99.90
2019-02-04T05:12:22.055Z,99.90
2019-02-04T05:14:52.973Z,99.90
2019-02-04T05:17:23.924Z,99.90
2019-02-04T05:19:55.508Z,99.90
2019-02-04T05:22:26.465Z,99.90
2019-02-04T05:24:57.374Z,99.90
2019-02-04T05:27:28.287Z,99.90
2019-02-04T05:29:59.277Z,99.90
2019-02-04T05:32:30.634Z,99.90
2019-02-04T05:35:01.585Z,99.90
2019-02-04T05:37:32.567Z,99.90
2019-02-04T05:40:03.863Z,99.90
2019-02-04T05:42:34.923Z,99.90
2019-02-04T05:45:09.778Z,99.90
2019-02-04T05:47:40.751Z,99.90
2019-02-04T05:50:19.880Z,99.90
2019-02-04T05:52:51.190Z,99.90
2019-02-04T05:55:23.305Z,99.90
2019-02-04T05:57:54.289Z,99.90
2019-02-04T06:00:35.633Z,99.90
2019-02-04T06:03:07.012Z,99.90
2019-02-04T06:05:37.962Z,99.90
2019-02-04T06:08:08.953Z,99.90
2019-02-04T06:10:39.904Z,99.90
2019-02-04T06:13:10.968Z,99.90
2019-02-04T06:15:41.912Z,99.90
2019-02-04T06:18:12.841Z,99.90
2019-02-04T06:20:43.856Z,99.90
2019-02-04T06:23:14.869Z,99.90
2019-02-04T06:25:45.823Z,99.90
2019-02-04T06:28:17.644Z,99.90
2019-02-04T06:30:48.695Z,99.90
2019-02-04T06:33:19.783Z,99.90
2019-02-04T06:35:50.828Z,99.90
2019-02-04T06:38:21.819Z,99.90
2019-02-04T06:40:52.795Z,99.90
2019-02-04T06:43:23.833Z,99.90
2019-02-04T06:45:54.807Z,99.90
2019-02-04T06:48:25.721Z,99.90
2019-02-04T06:50:56.676Z,99.90
2019-02-04T06:53:27.665Z,99.90
2019-02-04T06:55:58.619Z,99.90
2019-02-04T06:58:29.813Z,99.90
2019-02-04T07:01:00.872Z,99.90
2019-02-04T07:03:31.865Z,99.90
2019-02-04T07:06:02.857Z,99.90
2019-02-04T07:08:33.826Z,99.90
2019-02-04T07:11:05.282Z,99.90
2019-02-04T07:13:39.251Z,99.90
2019-02-04T07:16:08.965Z,99.90
2019-02-04T07:18:39.921Z,99.90
2019-02-04T07:21:10.896Z,99.90
2019-02-04T07:23:42.051Z,99.90
2019-02-04T07:26:12.982Z,99.90
2019-02-04T07:28:43.883Z,99.90
2019-02-04T07:31:14.937Z,99.90
2019-02-04T07:33:45.882Z,99.90
2019-02-04T07:36:16.864Z,99.90
2019-02-04T07:38:47.815Z,99.90
2019-02-04T07:41:18.796Z,99.90
2019-02-04T07:43:49.742Z,99.90
2019-02-04T07:46:20.728Z,99.90
2019-02-04T07:48:51.679Z,99.90
2019-02-04T07:51:22.655Z,99.90
2019-02-04T07:53:53.606Z,99.90
2019-02-04T07:56:25.579Z,99.90
2019-02-04T07:58:56.526Z,99.90
2019-02-04T08:01:27.508Z,99.90
2019-02-04T08:03:58.524Z,99.90
2019-02-04T08:06:29.508Z,99.90
2019-02-04T08:09:00.490Z,99.90
2019-02-04T08:11:33.141Z,99.90
2019-02-04T08:14:04.325Z,99.90
2019-02-04T08:16:35.344Z,99.90
2019-02-04T08:19:06.323Z,99.90
2019-02-04T08:21:37.347Z,99.90
2019-02-04T08:24:08.410Z,99.90
2019-02-04T08:26:39.380Z,99.90
2019-02-04T08:29:10.829Z,99.90
2019-02-04T08:31:41.783Z,99.90
2019-02-04T08:34:12.751Z,99.90
2019-02-04T08:36:46.401Z,99.90
2019-02-04T08:39:16.308Z,99.90
2019-02-04T08:41:47.566Z,99.90
2019-02-04T08:44:18.472Z,99.90
2019-02-04T08:46:49.348Z,99.90
2019-02-04T08:49:20.325Z,99.90
2019-02-04T08:51:51.274Z,99.90
2019-02-04T08:54:22.259Z,99.90
2019-02-04T08:56:53.200Z,99.90
2019-02-04T08:59:24.183Z,99.90
2019-02-04T09:01:55.121Z,99.90
2019-02-04T09:04:27.106Z,99.90
2019-02-04T09:06:58.151Z,99.90
2019-02-04T09:09:29.305Z,99.90
2019-02-04T09:12:00.323Z,99.90
2019-02-04T09:14:31.235Z,99.90
2019-02-04T09:17:02.212Z,99.90
2019-02-04T09:19:33.151Z,99.90
2019-02-04T09:22:04.535Z,99.90
2019-02-04T09:24:35.402Z,99.90
2019-02-04T09:27:06.549Z,99.90
2019-02-04T09:29:37.564Z,99.90
2019-02-04T09:32:08.540Z,99.90
2019-02-04T09:34:39.476Z,99.90
2019-02-04T09:37:10.372Z,99.90
2019-02-04T09:39:41.402Z,99.90
2019-02-04T09:42:12.453Z,99.90
2019-02-04T09:44:43.397Z,99.90
2019-02-04T09:47:14.497Z,99.90
2019-02-04T09:49:45.618Z,99.90
2019-02-04T09:52:16.587Z,99.90
2019-02-04T09:54:47.452Z,99.90
2019-02-04T09:57:18.422Z,99.90
2019-02-04T09:59:50.965Z,99.90
2019-02-04T10:02:22.378Z,99.90
2019-02-04T10:04:53.315Z,99.90
2019-02-04T10:07:24.278Z,99.90
2019-02-04T10:09:55.221Z,99.90
2019-02-04T10:12:26.182Z,99.90
2019-02-04T10:14:57.539Z,99.90
2019-02-04T10:17:28.552Z,99.90
2019-02-04T10:19:59.589Z,99.90
2019-02-04T10:22:30.664Z,99.90
2019-02-04T10:25:01.601Z,99.90
2019-02-04T10:27:35.511Z,99.90
2019-02-04T10:30:10.188Z,99.90
2019-02-04T10:32:41.681Z,99.90
2019-02-04T10:35:16.923Z,99.90
2019-02-04T10:37:50.181Z,99.90
2019-02-04T10:40:30.827Z,99.90
2019-02-04T10:43:02.290Z,99.90
2019-02-04T10:45:33.252Z,99.90
2019-02-04T10:48:04.448Z,99.90
2019-02-04T10:50:46.631Z,99.90
2019-02-04T10:53:16.027Z,99.90
2019-02-04T10:55:47.074Z,99.90
2019-02-04T10:58:19.126Z,99.90
2019-02-04T11:00:50.457Z,99.90
2019-02-04T11:03:21.522Z,99.90
2019-02-04T11:05:52.526Z,99.90
2019-02-04T11:08:23.541Z,99.90
2019-02-04T11:10:54.606Z,99.90
2019-02-04T11:13:26.092Z,99.90
2019-02-04T11:15:57.137Z,99.90
2019-02-04T11:18:28.133Z,99.90
2019-02-04T11:20:59.169Z,99.90
2019-02-04T11:23:30.174Z,99.90
2019-02-04T11:26:01.596Z,99.90
2019-02-04T11:28:32.595Z,99.90
2019-02-04T11:31:03.752Z,99.90
2019-02-04T11:33:34.800Z,99.90
2019-02-04T11:36:05.767Z,99.90
2019-02-04T11:38:37.081Z,99.90
2019-02-04T11:41:08.241Z,99.90
2019-02-04T11:43:39.272Z,99.90
2019-02-04T11:46:10.336Z,99.90
2019-02-04T11:48:41.286Z,99.90
2019-02-04T11:51:12.309Z,99.90
2019-02-04T11:53:43.210Z,99.90
2019-02-04T11:56:14.145Z,99.90
2019-02-04T11:58:45.116Z,99.90
2019-02-04T12:01:16.230Z,99.90
2019-02-04T12:03:47.198Z,99.90
2019-02-04T12:06:18.139Z,99.90
2019-02-04T12:08:49.154Z,99.90
2019-02-04T12:11:20.187Z,99.90
2019-02-04T12:13:51.161Z,99.90
2019-02-04T12:16:22.066Z,99.90
2019-02-04T12:18:53.032Z,99.90
2019-02-04T12:21:23.967Z,99.90
2019-02-04T12:23:55.937Z,99.90
2019-02-04T12:26:26.875Z,99.90
2019-02-04T12:28:58.044Z,99.90
2019-02-04T12:31:29.093Z,99.90
2019-02-04T12:34:00.134Z,99.90
2019-02-04T12:36:31.166Z,99.90
2019-02-04T12:39:02.086Z,99.90
2019-02-04T12:41:33.247Z,99.90
2019-02-04T12:44:04.610Z,99.90
2019-02-04T12:46:35.652Z,99.90
2019-02-04T12:49:06.584Z,99.90
2019-02-04T12:51:37.548Z,99.90
2019-02-04T12:54:08.414Z,99.90
2019-02-04T12:56:39.658Z,99.90
2019-02-04T12:59:10.592Z,99.90
2019-02-04T13:01:41.751Z,99.90
2019-02-04T13:04:12.690Z,99.90
2019-02-04T13:06:43.657Z,99.90
2019-02-04T13:09:16.430Z,99.90
2019-02-04T13:11:47.450Z,99.90
2019-02-04T13:14:18.314Z,99.90
2019-02-04T13:16:49.284Z,99.90
2019-02-04T13:19:20.222Z,99.90
2019-02-04T13:21:51.494Z,99.90
2019-02-04T13:24:22.359Z,99.90
2019-02-04T13:26:53.322Z,99.90
2019-02-04T13:29:24.293Z,99.90
2019-02-04T13:31:55.287Z,99.90
2019-02-04T13:34:26.257Z,99.90
2019-02-04T13:36:57.201Z,99.90
2019-02-04T13:39:28.167Z,99.90
2019-02-04T13:41:59.068Z,99.90
2019-02-04T13:44:30.045Z,99.90
2019-02-04T13:47:00.937Z,99.90
2019-02-04T13:49:31.959Z,99.90
2019-02-04T13:52:02.900Z,99.90
2019-02-04T13:54:33.877Z,99.90
2019-02-04T13:57:04.828Z,98.80
2019-02-04T13:59:36.870Z,99.90
2019-02-04T14:02:07.810Z,99.90
2019-02-04T14:04:38.777Z,99.90
2019-02-04T14:07:09.716Z,99.90
2019-02-04T14:09:40.687Z,99.90
2019-02-04T14:12:11.620Z,99.90
2019-02-04T14:14:42.584Z,99.90
2019-02-04T14:17:13.514Z,99.90
2019-02-04T14:19:44.492Z,99.90
2019-02-04T14:22:15.440Z,99.90
2019-02-04T14:24:46.413Z,94.30
2019-02-04T14:27:17.382Z,86.90
2019-02-04T14:29:48.409Z,76.50
2019-02-04T14:32:19.435Z,65.80
2019-02-04T14:34:51.403Z,63.20
2019-02-04T14:37:22.475Z,58.60
2019-02-04T14:39:53.386Z,59.40
2019-02-04T14:42:24.332Z,57.20
2019-02-04T14:44:55.423Z,55.50
2019-02-04T14:47:33.613Z,55.40
2019-02-04T14:50:09.143Z,57.00
2019-02-04T14:53:01.692Z,57.60
2019-02-04T14:55:51.712Z,63.10
2019-02-04T14:58:32.307Z,74.40
2019-02-04T15:01:46.447Z,87.20
2019-02-04T15:04:27.685Z,95.00
2019-02-04T15:07:17.080Z,99.90
2019-02-04T15:10:31.442Z,99.90
2019-02-04T15:13:38.311Z,99.90
2019-02-04T15:16:31.240Z,99.90
2019-02-04T15:19:33.708Z,99.90
2019-02-04T15:22:15.010Z,99.90
2019-02-04T15:25:17.252Z,99.90
2019-02-04T15:28:00.859Z,99.90
2019-02-04T15:30:38.859Z,99.90
2019-02-04T15:33:35.116Z,99.90
2019-02-04T15:36:45.051Z,99.90
2019-02-04T15:39:29.030Z,99.90
2019-02-04T15:42:53.906Z,99.90
2019-02-04T15:45:53.026Z,99.90
2019-02-04T15:48:28.370Z,99.90
2019-02-04T15:51:15.742Z,99.90
2019-02-04T15:53:46.610Z,99.90
2019-02-04T15:56:17.549Z,99.90
2019-02-04T15:58:48.563Z,99.90
2019-02-04T16:01:19.462Z,99.90
2019-02-04T16:03:50.410Z,99.90
2019-02-04T16:06:21.432Z,99.90
2019-02-04T16:08:52.623Z,99.90
2019-02-04T16:11:23.707Z,99.90
2019-02-04T16:13:54.655Z,99.90
2019-02-04T16:16:25.717Z,99.90
2019-02-04T16:18:56.672Z,99.90
2019-02-04T16:21:28.267Z,99.90
2019-02-04T16:23:59.279Z,99.90
2019-02-04T16:26:31.352Z,99.90
2019-02-04T16:29:04.028Z,99.90
2019-02-04T16:31:35.053Z,99.90
2019-02-04T16:34:06.367Z,99.90
2019-02-04T16:36:37.301Z,99.90
2019-02-04T16:39:10.788Z,99.90
2019-02-04T16:41:41.778Z,99.90
2019-02-04T16:44:13.160Z,99.90
2019-02-04T16:46:44.420Z,99.90
2019-02-04T16:49:15.401Z,99.90
2019-02-04T16:51:46.356Z,99.90
2019-02-04T16:54:17.413Z,99.90
2019-02-04T16:56:48.363Z,99.90
2019-02-04T16:59:19.729Z,99.90
2019-02-04T17:01:50.676Z,99.90
2019-02-04T17:04:21.654Z,99.90
2019-02-04T17:06:52.544Z,99.90
2019-02-04T17:09:23.524Z,99.90
2019-02-04T17:11:54.570Z,99.90
2019-02-04T17:14:26.558Z,99.90
2019-02-04T17:16:57.516Z,99.90
2019-02-04T17:19:28.515Z,99.90
2019-02-04T17:21:59.538Z,99.90
2019-02-04T17:24:30.518Z,99.90
2019-02-04T17:27:01.476Z,99.90
2019-02-04T17:29:32.540Z,99.90
2019-02-04T17:32:04.492Z,99.90
2019-02-04T17:34:35.532Z,99.90
2019-02-04T17:37:06.476Z,99.90
2019-02-04T17:39:37.607Z,99.90
2019-02-04T17:42:08.626Z,99.90
2019-02-04T17:44:39.708Z,99.90
2019-02-04T17:47:10.691Z,99.90
2019-02-04T17:49:41.678Z,99.90
2019-02-04T17:52:12.847Z,99.90
2019-02-04T17:54:43.918Z,99.90
2019-02-04T17:57:15.086Z,99.90
2019-02-04T17:59:46.073Z,99.90
2019-02-04T18:02:17.072Z,99.90
2019-02-04T18:04:48.394Z,99.90
2019-02-04T18:07:20.654Z,99.90
2019-02-04T18:09:51.740Z,99.90
2019-02-04T18:12:22.813Z,99.90
2019-02-04T18:14:53.753Z,99.90
2019-02-04T18:17:25.125Z,99.90
2019-02-04T18:19:56.207Z,99.90
2019-02-04T18:22:27.227Z,99.90
2019-02-04T18:24:58.212Z,99.90
2019-02-04T18:27:29.198Z,99.90
2019-02-04T18:30:00.232Z,99.90
2019-02-04T18:32:31.296Z,99.90
2019-02-04T18:35:02.332Z,99.90
2019-02-04T18:37:34.385Z,99.90
2019-02-04T18:40:09.787Z,99.90
2019-02-04T18:42:41.149Z,99.90
2019-02-04T18:45:27.220Z,99.90
2019-02-04T18:47:58.212Z,99.90
2019-02-04T18:50:29.999Z,99.90
2019-02-04T18:53:01.117Z,99.90
2019-02-04T18:55:35.464Z,99.90
2019-02-04T18:58:06.580Z,99.90
2019-02-04T19:00:37.889Z,99.90
2019-02-04T19:03:16.872Z,99.90
2019-02-04T19:05:42.011Z,99.90
2019-02-04T19:08:12.971Z,99.90
2019-02-04T19:10:43.951Z,99.90
2019-02-04T19:13:14.904Z,99.90
2019-02-04T19:15:46.043Z,99.90
2019-02-04T19:18:18.853Z,99.90
2019-02-04T19:20:49.972Z,99.90
2019-02-04T19:23:21.016Z,99.90
2019-02-04T19:25:52.069Z,99.90
2019-02-04T19:28:23.321Z,99.90
2019-02-04T19:31:01.731Z,99.90
2019-02-04T19:33:32.700Z,99.90
2019-02-04T19:36:03.798Z,99.90
2019-02-04T19:38:34.826Z,99.90
2019-02-04T19:41:06.206Z,99.90
2019-02-04T19:43:37.157Z,99.90
2019-02-04T19:46:08.175Z,99.90
2019-02-04T19:48:39.250Z,99.90
2019-02-04T19:51:10.236Z,99.90
2019-02-04T19:53:41.460Z,99.90
2019-02-04T19:56:12.413Z,99.90
2019-02-04T19:58:43.405Z,99.90
2019-02-04T20:01:14.304Z,99.90
2019-02-04T20:03:45.367Z,99.90
2019-02-04T20:06:16.419Z,99.90
2019-02-04T20:08:47.406Z,99.90
2019-02-04T20:11:18.358Z,99.90
2019-02-04T20:13:49.342Z,99.90
2019-02-04T20:16:20.294Z,99.90
2019-02-04T20:18:51.284Z,99.90
2019-02-04T20:21:22.237Z,99.90
2019-02-04T20:23:53.251Z,99.90
2019-02-04T20:26:24.304Z,99.90
2019-02-04T20:28:55.340Z,99.90
2019-02-04T20:31:26.356Z,99.90
2019-02-04T20:33:57.386Z,99.90
2019-02-04T20:36:30.308Z,99.90
2019-02-04T20:39:01.270Z,99.90
2019-02-04T20:41:33.387Z,99.90
2019-02-04T20:44:04.400Z,99.90
2019-02-04T20:46:35.559Z,99.90
2019-02-04T20:49:06.518Z,99.90
2019-02-04T20:51:37.434Z,99.90
2019-02-04T20:54:19.483Z,99.90
2019-02-04T20:56:42.157Z,99.90
2019-02-04T20:59:13.341Z,99.90
2019-02-04T21:01:44.318Z,99.90
2019-02-04T21:04:15.302Z,99.90
2019-02-04T21:06:55.709Z,99.90
2019-02-04T21:09:19.764Z,99.90
2019-02-04T21:11:51.126Z,99.90
2019-02-04T21:14:22.025Z,99.90
2019-02-04T21:16:53.006Z,99.90
2019-02-04T21:19:23.978Z,99.90
2019-02-04T21:21:55.950Z,99.90
2019-02-04T21:24:27.971Z,99.90
2019-02-04T21:26:58.956Z,99.90
2019-02-04T21:29:29.943Z,99.90
2019-02-04T21:32:01.928Z,99.90
2019-02-04T21:34:33.919Z,99.90
2019-02-04T21:37:06.294Z,99.90
2019-02-04T21:39:37.318Z,99.90
2019-02-04T21:42:09.317Z,99.90
2019-02-04T21:44:40.303Z,99.90
2019-02-04T21:47:11.261Z,99.90
2019-02-04T21:49:42.652Z,99.90
2019-02-04T21:52:13.654Z,99.90
2019-02-04T21:54:44.634Z,99.90
2019-02-04T21:57:15.591Z,99.90
2019-02-04T21:59:46.575Z,99.90
2019-02-04T22:02:17.761Z,99.90
2019-02-04T22:04:48.691Z,99.90
2019-02-04T22:07:20.649Z,99.90
2019-02-04T22:09:51.631Z,99.90
2019-02-04T22:12:22.854Z,99.90
2019-02-04T22:14:53.834Z,99.90
2019-02-04T22:17:24.964Z,99.90
2019-02-04T22:19:55.949Z,99.90
2019-02-04T22:22:27.272Z,99.90
2019-02-04T22:24:58.260Z,99.90
2019-02-04T22:27:29.478Z,99.90
2019-02-04T22:30:00.396Z,99.90
2019-02-04T22:32:31.727Z,99.90
2019-02-04T22:35:02.638Z,99.90
2019-02-04T22:37:33.592Z,99.90
2019-02-04T22:40:07.544Z,99.90
2019-02-04T22:42:38.810Z,99.90
2019-02-04T22:45:13.656Z,99.90
2019-02-04T22:47:44.607Z,99.90
2019-02-04T22:50:19.638Z,99.90
2019-02-04T22:52:50.622Z,99.90
2019-02-04T22:55:31.701Z,99.90
2019-02-04T22:57:54.677Z,99.90
2019-02-04T23:01:00.711Z,99.90
2019-02-04T23:03:31.686Z,99.90
2019-02-04T23:06:02.603Z,99.90
2019-02-04T23:08:33.482Z,99.90
2019-02-04T23:11:04.565Z,99.90
2019-02-04T23:13:35.925Z,99.90
2019-02-04T23:16:08.131Z,99.90
2019-02-04T23:18:39.119Z,99.90
2019-02-04T23:21:10.075Z,99.90
2019-02-04T23:23:41.050Z,99.90
2019-02-04T23:26:12.974Z,99.90
2019-02-04T23:28:43.995Z,99.90
2019-02-04T23:31:14.946Z,99.90
2019-02-04T23:33:45.925Z,99.90
2019-02-04T23:36:16.982Z,99.90
2019-02-04T23:38:48.344Z,99.90
2019-02-04T23:41:19.230Z,99.90
2019-02-04T23:43:50.225Z,99.90
2019-02-04T23:46:21.121Z,99.90
2019-02-04T23:48:52.100Z,99.90
2019-02-04T23:51:23.014Z,99.90
2019-02-04T23:53:53.969Z,99.90
2019-02-04T23:56:24.956Z,99.90
2019-02-04T23:58:55.917Z,99.90
